Time;durP1;ratioP1;P1;durP2;ratioP2;P2;SDS_P1;SDS_P2;PMS_P1;PMS_P2;Temp;Humidity;BMP_temperature;BMP_pressure;BME280_temperature;BME280_humidity;BME280_pressure;Samples;Min_cycle;Max_cycle;Signal;HPM_P1;HPM_P2
2022/04/28 00:00:59;;;;;;;4.10;1.95;;;;;;;16.48;62.07;99873.09;5140737;27;20097;-71
2022/04/28 00:03:25;;;;;;;5.68;2.08;;;;;;;16.52;61.61;99876.19;5140034;27;20023;-71
2022/04/28 00:05:51;;;;;;;5.13;2.50;;;;;;;16.46;61.53;99885.81;5125162;27;20034;-71
2022/04/28 00:08:17;;;;;;;5.65;2.70;;;;;;;16.35;62.27;99864.16;5122740;27;20019;-70
2022/04/28 00:10:42;;;;;;;7.55;2.17;;;;;;;16.49;62.08;99882.75;5120556;27;20031;-72
2022/04/28 00:13:10;;;;;;;4.65;2.30;;;;;;;16.54;61.63;99883.00;5125144;27;20098;-71
2022/04/28 00:15:35;;;;;;;7.45;2.60;;;;;;;16.32;62.83;99869.91;5142109;27;20031;-72
2022/04/28 00:18:01;;;;;;;5.55;2.40;;;;;;;16.11;63.11;99874.28;5139937;27;20047;-71
2022/04/28 00:20:27;;;;;;;5.13;2.53;;;;;;;16.25;62.53;99868.03;5138982;27;20034;-72
2022/04/28 00:22:52;;;;;;;6.43;2.90;;;;;;;16.32;62.13;99873.41;5138648;27;20042;-71
2022/04/28 00:25:18;;;;;;;5.88;2.75;;;;;;;16.09;62.39;99854.97;5121299;27;20031;-72
2022/04/28 00:27:43;;;;;;;8.15;3.05;;;;;;;16.06;62.89;99859.88;5120187;27;20313;-71
2022/04/28 00:30:09;;;;;;;6.75;2.92;;;;;;;16.08;62.98;99861.31;5139857;27;20023;-71
2022/04/28 00:32:35;;;;;;;5.30;2.95;;;;;;;16.06;63.39;99863.38;5120214;27;20039;-72
2022/04/28 00:35:01;;;;;;;4.78;2.80;;;;;;;16.12;63.19;99875.94;5138824;27;20168;-72
2022/04/28 00:37:26;;;;;;;8.15;2.65;;;;;;;16.07;62.99;99874.88;5139120;27;20058;-71
2022/04/28 00:39:52;;;;;;;4.25;2.88;;;;;;;16.05;63.03;99871.56;5137344;27;20095;-71
2022/04/28 00:42:18;;;;;;;5.25;2.75;;;;;;;16.06;63.25;99881.25;5136329;27;20030;-71
2022/04/28 00:44:45;;;;;;;6.63;2.90;;;;;;;16.10;62.78;99877.97;5138471;27;20027;-72
2022/04/28 00:47:11;;;;;;;6.70;2.75;;;;;;;16.00;63.39;99863.31;5120730;27;20023;-72
2022/04/28 00:52:22;;;;;;;3.08;2.25;;;;;;;16.01;62.92;99868.47;5139311;27;20060;-72
2022/04/28 00:54:50;;;;;;;9.40;2.90;;;;;;;16.13;62.24;99874.94;5138809;27;20126;-71
2022/04/28 00:57:17;;;;;;;8.25;2.63;;;;;;;16.08;62.20;99864.00;5138438;27;20023;-73
2022/04/28 00:59:45;;;;;;;5.88;3.13;;;;;;;16.11;62.41;99866.28;5139538;27;20365;-72
2022/04/28 01:02:11;;;;;;;6.45;2.58;;;;;;;16.16;62.14;99863.03;5138587;27;20028;-71
2022/04/28 01:04:38;;;;;;;5.15;2.95;;;;;;;16.18;62.36;99863.66;5138147;27;20046;-71
2022/04/28 01:07:04;;;;;;;5.97;2.80;;;;;;;16.12;62.56;99867.09;5138891;27;20077;-72
2022/04/28 01:09:30;;;;;;;4.90;3.05;;;;;;;16.04;62.67;99870.75;5137647;27;20039;-71
2022/04/28 01:11:55;;;;;;;4.78;2.92;;;;;;;15.92;63.52;99866.97;5141342;27;20068;-72
2022/04/28 01:14:22;;;;;;;7.10;2.85;;;;;;;15.79;63.12;99849.00;5142268;27;20034;-74
2022/04/28 01:16:47;;;;;;;6.95;3.10;;;;;;;15.86;63.76;99862.38;5138927;27;20031;-74
2022/04/28 01:19:12;;;;;;;6.82;3.22;;;;;;;15.76;63.67;99876.06;5137868;27;20340;-73
2022/04/28 01:21:38;;;;;;;7.50;2.70;;;;;;;15.66;64.05;99869.41;5139187;27;20041;-74
2022/04/28 01:24:05;;;;;;;7.43;3.00;;;;;;;15.59;64.08;99858.63;5103873;28;20037;-73
2022/04/28 01:26:31;;;;;;;10.63;4.97;;;;;;;15.62;64.40;99871.63;5139069;27;20034;-74
2022/04/28 01:28:57;;;;;;;7.25;3.60;;;;;;;15.63;63.99;99871.44;5139098;27;20120;-73
2022/04/28 01:31:22;;;;;;;10.20;3.47;;;;;;;15.61;64.46;99869.97;5137637;27;20035;-74
2022/04/28 01:33:48;;;;;;;5.45;3.17;;;;;;;15.46;64.83;99861.97;5114093;27;20031;-74
2022/04/28 01:36:13;;;;;;;6.53;3.53;;;;;;;15.48;64.87;99872.47;5119107;28;20126;-74
2022/04/28 01:38:38;;;;;;;5.60;3.40;;;;;;;15.42;64.80;99855.38;5137792;28;20395;-74
2022/04/28 01:41:04;;;;;;;6.95;4.00;;;;;;;15.48;64.99;99869.78;5142461;28;20337;-74
2022/04/28 01:43:30;;;;;;;8.23;3.85;;;;;;;15.47;64.83;99873.47;5141843;28;20041;-73
2022/04/28 01:45:55;;;;;;;6.03;3.75;;;;;;;15.30;64.96;99852.38;5137199;28;20054;-75
2022/04/28 01:48:21;;;;;;;6.05;3.83;;;;;;;15.40;65.42;99867.25;5138077;28;20031;-74
2022/04/28 01:56:17;;;;;;;5.72;3.60;;;;;;;15.23;65.72;99862.16;5142741;27;20080;-73
2022/04/28 01:58:42;;;;;;;6.63;3.60;;;;;;;15.27;65.59;99875.94;5141178;27;20035;-74
2022/04/28 02:01:08;;;;;;;10.57;3.72;;;;;;;15.32;65.30;99877.03;5143617;27;20039;-73
2022/04/28 02:03:33;;;;;;;8.68;3.67;;;;;;;15.31;65.44;99871.88;5145950;27;20054;-73
2022/04/28 02:05:59;;;;;;;5.88;4.22;;;;;;;15.31;65.96;99874.56;5143369;27;20076;-74
2022/04/28 02:08:24;;;;;;;9.65;3.97;;;;;;;15.30;65.88;99872.91;5141095;27;20336;-73
2022/04/28 02:10:50;;;;;;;4.70;3.65;;;;;;;15.29;66.17;99880.06;5141544;27;20035;-73
2022/04/28 02:13:16;;;;;;;10.77;4.50;;;;;;;15.30;66.37;99880.91;5142082;27;20027;-74
2022/04/28 02:15:42;;;;;;;8.77;4.53;;;;;;;15.22;66.61;99875.69;5140488;27;20384;-74
2022/04/28 02:18:08;;;;;;;8.35;4.15;;;;;;;15.20;65.95;99872.38;5142417;27;20098;-75
2022/04/28 02:20:34;;;;;;;8.35;3.83;;;;;;;15.17;66.91;99881.59;5140961;27;20091;-73
2022/04/28 02:22:59;;;;;;;6.00;3.80;;;;;;;15.13;67.03;99874.16;5141437;27;20027;-73
2022/04/28 02:25:25;;;;;;;8.88;3.90;;;;;;;15.09;66.49;99875.53;5142773;27;20046;-74
2022/04/28 02:27:50;;;;;;;6.25;4.00;;;;;;;15.01;67.33;99889.81;5140447;27;20027;-74
2022/04/28 02:30:16;;;;;;;8.55;4.38;;;;;;;14.97;68.05;99889.34;5142338;27;20034;-74
2022/04/28 02:35:26;;;;;;;14.05;5.90;;;;;;;15.03;67.95;99882.44;5141236;27;20382;-74
2022/04/28 02:37:51;;;;;;;22.63;5.55;;;;;;;14.97;67.96;99884.03;5141932;27;20031;-74
2022/04/28 02:40:16;;;;;;;7.57;4.32;;;;;;;15.00;67.94;99890.81;5126843;27;20324;-73
2022/04/28 02:42:42;;;;;;;12.45;3.75;;;;;;;14.98;67.55;99883.00;5144280;27;20039;-74
2022/04/28 02:45:08;;;;;;;18.95;4.47;;;;;;;14.95;67.61;99882.56;5139042;27;20056;-74
2022/04/28 02:47:35;;;;;;;11.40;3.67;;;;;;;14.94;66.93;99884.41;5141656;27;20027;-74
2022/04/28 02:50:01;;;;;;;10.15;3.33;;;;;;;14.76;67.62;99877.81;5141106;27;20019;-75
2022/04/28 02:52:27;;;;;;;9.93;3.53;;;;;;;14.72;67.59;99884.53;5140322;27;20023;-74
2022/04/28 02:54:52;;;;;;;11.32;3.60;;;;;;;14.60;67.44;99876.16;5141314;27;20046;-74
2022/04/28 02:57:18;;;;;;;7.05;3.60;;;;;;;14.41;68.81;99882.00;5139978;27;20201;-75
2022/04/28 02:59:43;;;;;;;7.55;3.55;;;;;;;14.16;69.63;99879.59;5140886;27;20035;-75
2022/04/28 03:02:08;;;;;;;7.15;3.25;;;;;;;14.11;69.57;99884.63;5141312;27;20256;-73
2022/04/28 03:04:34;;;;;;;6.35;3.47;;;;;;;13.95;69.46;99859.00;5140714;27;20106;-74
2022/04/28 03:12:27;;;;;;;5.03;3.30;;;;;;;14.09;70.05;99885.81;5141168;27;20065;-74
2022/04/28 03:14:52;;;;;;;3.90;2.92;;;;;;;14.17;69.62;99899.06;5123799;27;20242;-73
2022/04/28 03:17:18;;;;;;;6.57;3.15;;;;;;;14.13;69.39;99893.25;5141478;27;20102;-73
2022/04/28 03:19:43;;;;;;;7.22;3.85;;;;;;;14.17;69.65;99902.53;5139067;27;20033;-73
2022/04/28 03:22:09;;;;;;;7.50;3.53;;;;;;;14.13;70.24;99887.94;5140630;27;20250;-74
2022/04/28 03:24:34;;;;;;;7.68;4.03;;;;;;;14.26;69.62;99900.63;5140472;27;20041;-73
2022/04/28 03:26:59;;;;;;;4.82;3.50;;;;;;;14.23;69.88;99907.16;5139917;27;20087;-74
2022/04/28 03:29:25;;;;;;;13.68;4.32;;;;;;;14.20;71.22;99918.16;5141018;27;20030;-75
2022/04/28 03:31:50;;;;;;;11.25;4.60;;;;;;;14.29;70.72;99922.41;5139606;27;20029;-74
2022/04/28 03:34:16;;;;;;;10.98;4.63;;;;;;;14.42;70.60;99935.13;5144379;27;20061;-73
2022/04/28 03:36:51;;;;;;;7.00;4.50;;;;;;;14.38;70.55;99918.66;5144325;27;20451;-74
2022/04/28 03:39:17;;;;;;;16.55;4.80;;;;;;;14.58;70.15;99948.31;5141498;27;20031;-74
2022/04/28 03:41:42;;;;;;;10.15;4.80;;;;;;;14.64;69.71;99941.41;5139849;27;20038;-75
2022/04/28 03:44:09;;;;;;;8.70;4.40;;;;;;;14.71;69.49;99957.50;5140502;27;20034;-74
2022/04/28 03:46:35;;;;;;;14.38;5.15;;;;;;;14.67;69.58;99957.03;5139671;27;20035;-73
2022/04/28 03:49:00;;;;;;;8.32;5.07;;;;;;;14.60;69.42;99964.94;5139988;27;20019;-73
2022/04/28 03:51:26;;;;;;;8.77;4.53;;;;;;;14.72;69.33;99973.31;5122123;27;20343;-73
2022/04/28 03:53:51;;;;;;;10.82;4.78;;;;;;;14.77;68.96;99978.91;5139084;27;20026;-74
2022/04/28 03:56:17;;;;;;;8.40;4.70;;;;;;;14.83;68.60;99972.03;5139799;27;20031;-74
2022/04/28 03:58:42;;;;;;;15.02;4.50;;;;;;;14.81;68.55;99974.88;5140027;27;20099;-74
2022/04/28 04:01:08;;;;;;;8.85;4.50;;;;;;;14.80;69.10;99977.72;5139049;27;20023;-74
2022/04/28 04:03:33;;;;;;;13.05;4.70;;;;;;;14.87;68.92;99978.66;5140411;27;20064;-74
2022/04/28 04:05:58;;;;;;;6.30;4.40;;;;;;;14.86;68.72;99974.31;5138613;27;20039;-74
2022/04/28 04:08:24;;;;;;;13.55;4.50;;;;;;;14.86;68.83;99980.47;5139522;27;20384;-75
2022/04/28 04:10:49;;;;;;;8.18;4.10;;;;;;;14.89;69.03;99988.13;5139410;27;20038;-73
2022/04/28 04:13:15;;;;;;;17.60;4.75;;;;;;;14.86;68.50;99980.47;5138555;27;20086;-73
2022/04/28 04:15:41;;;;;;;13.25;5.00;;;;;;;14.94;68.49;99998.22;5139948;27;20073;-74
2022/04/28 04:18:08;;;;;;;10.93;4.53;;;;;;;14.44;70.36;99993.56;5121982;27;20039;-73
2022/04/28 04:20:34;;;;;;;12.38;4.93;;;;;;;14.53;70.73;100003.94;5124795;27;20031;-74
2022/04/28 04:22:59;;;;;;;10.23;5.00;;;;;;;14.52;70.78;100002.28;5141384;27;20031;-74
2022/04/28 04:25:25;;;;;;;11.35;6.15;;;;;;;14.60;70.89;100010.25;5121190;27;20077;-73
2022/04/28 04:27:50;;;;;;;11.50;6.20;;;;;;;14.71;70.74;100008.97;5142294;27;20083;-73
2022/04/28 04:33:00;;;;;;;11.50;5.60;;;;;;;14.89;69.40;100021.94;5137864;27;20054;-74
2022/04/28 04:35:25;;;;;;;10.82;5.85;;;;;;;14.97;69.59;100021.84;5114678;27;20313;-73
2022/04/28 04:37:52;;;;;;;14.10;6.55;;;;;;;15.03;69.60;100018.44;5137808;27;20042;-74
2022/04/28 04:40:17;;;;;;;20.52;6.00;;;;;;;15.15;69.66;100026.81;5119123;27;20019;-74
2022/04/28 04:42:43;;;;;;;21.58;6.47;;;;;;;15.29;68.92;100021.47;5139665;27;20046;-74
2022/04/28 04:45:10;;;;;;;24.20;6.10;;;;;;;15.43;68.16;100029.66;5136997;27;20225;-74
2022/04/28 04:47:36;;;;;;;18.30;6.60;;;;;;;15.30;69.00;100030.31;5139370;27;20029;-73
2022/04/28 04:50:03;;;;;;;16.08;5.68;;;;;;;15.40;68.35;100027.34;5139670;27;20062;-73
2022/04/28 04:52:28;;;;;;;20.50;5.80;;;;;;;15.44;68.46;100024.13;5140087;27;20031;-74
2022/04/28 04:54:54;;;;;;;23.33;6.20;;;;;;;15.39;67.92;100031.03;5139122;27;20035;-74
2022/04/28 04:57:19;;;;;;;16.38;5.28;;;;;;;15.65;67.05;100031.41;5117103;27;20035;-75
2022/04/28 04:59:45;;;;;;;13.82;5.82;;;;;;;15.68;66.83;100023.03;5137988;27;20027;-73
2022/04/28 05:02:10;;;;;;;19.10;6.10;;;;;;;16.07;65.84;100030.63;5138705;27;20098;-71
2022/04/28 05:04:35;;;;;;;12.10;6.00;;;;;;;16.41;65.30;100037.09;5138108;27;20040;-71
2022/04/28 05:07:01;;;;;;;15.95;6.15;;;;;;;16.75;63.20;100042.56;5139065;27;20028;-71
2022/04/28 05:09:26;;;;;;;10.82;6.15;;;;;;;17.00;62.98;100013.53;5137914;27;20027;-71
2022/04/28 05:11:52;;;;;;;10.48;6.13;;;;;;;17.36;61.37;100034.72;5137328;27;20031;-72
2022/04/28 05:14:17;;;;;;;11.35;6.13;;;;;;;17.43;62.37;100032.06;5119761;27;20027;-72
2022/04/28 05:16:43;;;;;;;12.90;6.25;;;;;;;17.49;62.46;100045.47;5137861;27;20039;-71
2022/04/28 05:19:08;;;;;;;20.15;6.88;;;;;;;17.89;60.83;100042.16;5135671;27;20287;-71
2022/04/28 05:21:34;;;;;;;17.85;7.75;;;;;;;18.43;57.76;100031.31;5126838;27;20036;-71
2022/04/28 05:23:59;;;;;;;16.27;7.90;;;;;;;18.88;56.40;100040.44;5123747;27;20038;-72
2022/04/28 05:26:25;;;;;;;19.10;8.43;;;;;;;19.29;55.17;100048.19;5122257;28;20241;-72
2022/04/28 05:28:50;;;;;;;26.27;7.80;;;;;;;19.61;53.84;100048.28;5123539;28;20162;-73
2022/04/28 05:31:16;;;;;;;21.80;8.05;;;;;;;19.96;53.06;100038.84;5123423;28;20036;-74
2022/04/28 05:33:42;;;;;;;17.30;7.68;;;;;;;20.28;51.46;100047.72;5123222;28;20034;-73
2022/04/28 05:36:12;;;;;;;22.77;8.27;;;;;;;20.01;51.82;100035.50;5122588;28;20043;-74
2022/04/28 05:38:39;;;;;;;17.10;7.85;;;;;;;19.61;52.10;100045.63;5118642;28;20094;-74
2022/04/28 05:41:05;;;;;;;30.15;8.00;;;;;;;19.72;53.32;100042.25;5122922;28;20027;-74
2022/04/28 05:46:17;;;;;;;17.75;7.43;;;;;;;20.69;50.36;100047.22;5142518;28;20471;-73
2022/04/28 05:48:43;;;;;;;18.38;7.90;;;;;;;20.80;50.44;100052.94;5142581;28;20039;-74
2022/04/28 05:51:09;;;;;;;21.08;7.35;;;;;;;20.54;51.28;100070.13;5142738;28;20300;-74
2022/04/28 05:53:35;;;;;;;14.60;6.15;;;;;;;20.46;50.24;100067.72;5111132;28;20028;-74
2022/04/28 05:56:00;;;;;;;16.27;6.38;;;;;;;20.26;50.69;100060.56;5142805;28;20210;-73
2022/04/28 05:58:25;;;;;;;16.40;6.35;;;;;;;20.63;50.96;100058.88;5142546;28;20050;-74
2022/04/28 06:00:51;;;;;;;19.30;6.72;;;;;;;20.91;50.41;100065.69;5142892;28;20035;-73
2022/04/28 06:03:16;;;;;;;15.90;6.18;;;;;;;21.15;50.20;100061.31;5142756;28;20019;-74
2022/04/28 06:05:42;;;;;;;15.90;6.65;;;;;;;21.16;49.72;100034.16;5142329;28;20046;-74
2022/04/28 06:08:07;;;;;;;15.40;6.18;;;;;;;21.17;50.87;100061.91;5124678;28;20305;-74
2022/04/28 06:10:33;;;;;;;12.43;5.28;;;;;;;21.52;49.16;100052.22;5142628;28;20027;-73
2022/04/28 06:12:58;;;;;;;8.77;5.13;;;;;;;21.71;47.25;100049.50;5142535;28;20049;-73
2022/04/28 06:15:24;;;;;;;8.65;3.92;;;;;;;22.32;45.38;100048.47;5142803;28;20323;-74
2022/04/28 06:17:49;;;;;;;5.90;3.92;;;;;;;22.44;43.74;100050.16;5124621;28;20027;-73
2022/04/28 06:20:15;;;;;;;4.78;3.40;;;;;;;22.95;42.80;100048.72;5141996;28;20038;-74
2022/04/28 06:22:41;;;;;;;13.25;4.30;;;;;;;23.15;42.61;100051.06;5142594;28;20035;-73
2022/04/28 06:25:07;;;;;;;10.48;3.80;;;;;;;22.43;43.76;100055.78;5142732;28;20238;-73
2022/04/28 06:27:32;;;;;;;12.93;3.80;;;;;;;21.42;46.85;100049.22;5142309;28;20538;-73
2022/04/28 06:29:58;;;;;;;10.02;4.35;;;;;;;21.46;47.25;100052.28;5134979;28;20038;-73
2022/04/28 06:32:23;;;;;;;10.32;4.03;;;;;;;21.19;46.99;100055.25;5129899;28;20044;-73
2022/04/28 06:34:49;;;;;;;10.35;3.75;;;;;;;21.52;46.79;100057.59;5128959;28;20225;-74
2022/04/28 06:37:15;;;;;;;11.02;3.92;;;;;;;21.87;46.38;100038.94;5117311;27;20333;-74
2022/04/28 06:39:41;;;;;;;9.27;3.63;;;;;;;21.74;45.95;100051.75;5134502;27;20024;-73
2022/04/28 06:42:07;;;;;;;7.57;3.50;;;;;;;21.78;45.54;100051.06;5136200;27;20103;-74
2022/04/28 06:44:33;;;;;;;7.00;3.30;;;;;;;21.92;44.28;100051.72;5132934;27;20061;-73
2022/04/28 06:46:58;;;;;;;8.57;3.20;;;;;;;22.37;45.87;100051.31;5115928;27;20225;-74
2022/04/28 06:49:24;;;;;;;7.22;2.75;;;;;;;21.72;46.76;100051.16;5134096;27;20027;-73
2022/04/28 06:51:49;;;;;;;10.95;2.72;;;;;;;22.02;43.25;100056.56;5132211;27;20027;-73
2022/04/28 06:54:15;;;;;;;7.10;2.55;;;;;;;22.84;43.50;100060.31;5135748;27;20080;-74
2022/04/28 06:56:40;;;;;;;6.07;2.67;;;;;;;22.45;42.75;100057.19;5130934;27;20031;-73
2022/04/28 06:59:06;;;;;;;8.15;3.30;;;;;;;23.05;41.85;100058.94;5136289;27;20233;-74
2022/04/28 07:01:32;;;;;;;7.75;2.90;;;;;;;23.47;41.92;100054.16;5131239;27;20099;-71
2022/04/28 07:03:57;;;;;;;9.15;3.30;;;;;;;24.25;40.12;100056.25;5130415;27;20210;-71
2022/04/28 07:06:23;;;;;;;5.82;3.20;;;;;;;23.26;41.21;100055.63;5130911;27;20036;-71
2022/04/28 07:08:49;;;;;;;4.93;2.55;;;;;;;22.93;41.69;100053.53;5136103;27;20033;-71
2022/04/28 07:11:15;;;;;;;7.53;3.00;;;;;;;22.89;42.35;100049.66;5130821;27;20854;-71
2022/04/28 07:13:40;;;;;;;5.53;2.53;;;;;;;22.67;42.17;100054.75;5136501;27;20031;-71
2022/04/28 07:16:06;;;;;;;7.82;2.85;;;;;;;23.50;41.28;100051.00;5117201;27;20062;-71
2022/04/28 07:18:31;;;;;;;5.88;2.63;;;;;;;23.72;39.46;100043.91;5130464;27;20233;-72
2022/04/28 07:21:00;;;;;;;4.97;3.00;;;;;;;23.33;41.07;100037.41;5131446;27;20229;-71
2022/04/28 07:23:25;;;;;;;5.80;2.47;;;;;;;23.32;41.22;100049.25;5136289;27;20035;-72
2022/04/28 07:25:51;;;;;;;8.02;2.60;;;;;;;24.31;39.25;100044.50;5131117;27;20232;-71
2022/04/28 07:28:16;;;;;;;6.30;2.20;;;;;;;25.02;36.14;100034.00;5134914;27;20258;-71
2022/04/28 07:30:42;;;;;;;6.60;2.33;;;;;;;25.53;35.27;100034.66;5116598;28;20151;-71
2022/04/28 07:33:08;;;;;;;5.22;2.17;;;;;;;25.96;34.28;100048.19;5106327;28;20047;-71
2022/04/28 07:35:34;;;;;;;5.03;2.30;;;;;;;25.93;34.39;100045.19;5131065;27;20197;-71
2022/04/28 07:38:00;;;;;;;5.22;2.00;;;;;;;25.95;34.47;100046.56;5130103;27;20099;-71
2022/04/28 07:40:26;;;;;;;3.55;1.90;;;;;;;26.47;32.49;100037.06;5133229;27;20209;-71
2022/04/28 07:42:51;;;;;;;10.57;2.42;;;;;;;26.81;32.18;100041.09;5132651;27;20047;-71
2022/04/28 07:45:16;;;;;;;5.55;1.95;;;;;;;27.12;30.94;100028.59;5132188;27;20321;-71
2022/04/28 07:47:42;;;;;;;4.82;1.73;;;;;;;26.98;30.97;100036.34;5134312;27;20037;-71
2022/04/28 07:50:08;;;;;;;4.00;1.90;;;;;;;27.17;31.54;100044.91;5130887;27;20039;-71
2022/04/28 07:52:33;;;;;;;4.72;1.90;;;;;;;27.19;30.54;100045.47;5134455;27;20031;-72
2022/04/28 07:54:59;;;;;;;8.00;1.85;;;;;;;27.40;30.97;100043.66;5116912;27;20019;-72
2022/04/28 07:57:24;;;;;;;8.07;1.95;;;;;;;26.77;30.96;100042.72;5123691;27;20337;-71
2022/04/28 07:59:50;;;;;;;3.75;1.83;;;;;;;26.27;31.23;100033.06;5122977;27;20291;-71
2022/04/28 08:02:16;;;;;;;8.27;1.70;;;;;;;26.86;31.08;100038.44;5122768;27;20031;-71
2022/04/28 08:04:43;;;;;;;5.45;1.80;;;;;;;27.00;31.24;100034.19;5107757;27;20328;-71
2022/04/28 08:07:08;;;;;;;4.40;1.85;;;;;;;26.97;30.92;100031.16;5109754;27;20023;-72
2022/04/28 08:09:34;;;;;;;6.90;1.55;;;;;;;26.99;30.40;100031.75;5125466;27;20049;-72
2022/04/28 08:12:00;;;;;;;5.45;1.95;;;;;;;26.60;30.64;100031.19;5123642;27;20044;-71
2022/04/28 08:14:26;;;;;;;3.72;1.60;;;;;;;25.51;32.42;100025.97;5122021;27;20047;-71
2022/04/28 08:16:55;;;;;;;4.75;1.80;;;;;;;25.34;32.35;100010.59;5124071;27;20076;-72
2022/04/28 08:19:21;;;;;;;7.10;1.70;;;;;;;25.64;33.49;100029.09;5110962;27;20050;-71
2022/04/28 08:21:47;;;;;;;5.38;1.73;;;;;;;26.17;32.04;100016.69;5123930;27;20095;-72
2022/04/28 08:24:13;;;;;;;5.03;1.80;;;;;;;26.59;31.67;100024.13;5121888;27;20039;-72
2022/04/28 08:26:39;;;;;;;4.13;1.65;;;;;;;26.73;30.22;100020.69;5123191;27;20340;-72
2022/04/28 08:29:04;;;;;;;6.15;1.77;;;;;;;26.93;29.51;100017.28;5106861;28;20051;-71
2022/04/28 08:31:31;;;;;;;7.05;1.60;;;;;;;26.92;29.11;100020.25;5122448;27;20039;-72
2022/04/28 08:33:56;;;;;;;6.30;1.60;;;;;;;26.28;29.53;100018.41;5123776;27;20042;-72
2022/04/28 08:36:22;;;;;;;5.65;1.58;;;;;;;26.30;30.19;100027.13;5121975;27;20233;-72
2022/04/28 08:38:47;;;;;;;3.28;1.65;;;;;;;26.34;30.77;100019.31;5123419;27;20028;-72
2022/04/28 08:41:19;;;;;;;3.80;1.70;;;;;;;27.03;29.96;100011.94;5107507;27;20205;-73
2022/04/28 08:43:45;;;;;;;5.00;1.50;;;;;;;27.04;30.14;100020.91;5121742;27;20072;-71
2022/04/28 08:48:56;;;;;;;6.18;1.77;;;;;;;27.42;28.70;100016.22;5120808;27;20034;-71
2022/04/28 08:51:27;;;;;;;6.57;1.67;;;;;;;27.58;28.21;100013.28;5121582;27;20058;-71
2022/04/28 08:53:53;;;;;;;4.68;1.35;;;;;;;27.76;28.15;100006.56;5125163;27;20043;-72
2022/04/28 08:56:20;;;;;;;6.28;1.60;;;;;;;26.84;28.57;100007.97;5121935;27;20399;-71
2022/04/28 08:58:46;;;;;;;5.97;1.80;;;;;;;25.31;32.33;100016.50;5122206;27;20092;-71
2022/04/28 09:01:12;;;;;;;6.57;1.73;;;;;;;25.01;31.39;100000.69;5111188;27;20039;-71
2022/04/28 09:03:37;;;;;;;5.78;1.60;;;;;;;25.62;30.61;99997.88;5123166;27;20340;-71
2022/04/28 09:06:29;;;;;;;5.13;1.60;;;;;;;25.75;32.11;100000.22;5120045;27;20031;-72
2022/04/28 09:08:56;;;;;;;6.65;1.90;;;;;;;25.99;31.83;100007.00;5123650;27;20372;-71
2022/04/28 09:11:24;;;;;;;3.75;1.63;;;;;;;26.30;30.56;100007.28;5121746;27;20029;-72
2022/04/28 09:14:11;;;;;;;5.97;1.70;;;;;;;26.15;31.49;99999.03;5109245;28;20035;-72
2022/04/28 09:16:56;;;;;;;7.90;1.67;;;;;;;25.92;30.84;100005.56;5122294;27;20251;-73
2022/04/28 09:19:33;;;;;;;7.20;1.52;;;;;;;25.87;29.72;99997.38;5124091;27;20030;-72
2022/04/28 09:22:08;;;;;;;3.70;1.55;;;;;;;26.08;31.35;99996.50;5121261;27;20167;-71
2022/04/28 09:24:34;;;;;;;7.28;1.50;;;;;;;25.42;31.52;99998.47;5120776;27;20036;-74
2022/04/28 09:27:00;;;;;;;5.40;1.88;;;;;;;25.27;31.47;99996.41;5123177;27;20039;-74
2022/04/28 09:29:32;;;;;;;3.58;1.50;;;;;;;25.05;32.37;99999.09;5121176;27;20068;-71
2022/04/28 09:31:58;;;;;;;7.20;1.92;;;;;;;25.05;34.81;99985.56;5122477;28;20032;-72
2022/04/28 09:34:25;;;;;;;2.28;1.27;;;;;;;24.82;34.22;99988.44;5108789;28;20056;-74
2022/04/28 09:36:51;;;;;;;5.65;1.55;;;;;;;24.58;36.68;99989.69;5123775;28;20037;-73
2022/04/28 09:44:53;;;;;;;7.88;1.80;;;;;;;23.37;38.53;99992.63;5123948;28;20050;-73
2022/04/28 09:47:20;;;;;;;3.85;1.55;;;;;;;23.58;38.43;99987.66;5121822;28;20027;-71
2022/04/28 09:49:52;;;;;;;9.38;2.20;;;;;;;23.93;36.92;99977.53;5120050;28;20062;-72
2022/04/28 09:52:41;;;;;;;12.20;2.13;;;;;;;23.70;38.17;99993.81;5121581;28;20080;-74
2022/04/28 09:55:07;;;;;;;7.93;1.98;;;;;;;23.24;38.40;99973.97;5121140;28;20029;-73
2022/04/28 09:57:32;;;;;;;6.15;1.90;;;;;;;23.16;37.77;99967.06;5121918;28;20067;-73
2022/04/28 10:00:00;;;;;;;5.10;1.90;;;;;;;23.17;38.41;99978.69;5123599;28;20295;-74
2022/04/28 10:02:27;;;;;;;9.80;1.75;;;;;;;22.95;38.64;99980.38;5110368;28;20019;-73
2022/04/28 10:04:54;;;;;;;4.50;1.70;;;;;;;22.81;37.83;99974.38;5120546;28;20044;-73
2022/04/28 10:07:22;;;;;;;5.40;1.65;;;;;;;22.86;37.90;99971.78;5122125;28;20040;-74
2022/04/28 10:09:49;;;;;;;5.85;1.70;;;;;;;22.91;39.88;99961.97;5120990;28;20039;-74
2022/04/28 10:12:19;;;;;;;5.93;1.88;;;;;;;22.96;37.83;99966.66;5122632;27;20027;-74
2022/04/28 10:14:47;;;;;;;7.60;1.63;;;;;;;23.17;37.76;99959.78;5123670;27;20027;-74
2022/04/28 10:17:17;;;;;;;3.67;1.65;;;;;;;23.47;37.41;99960.41;5125679;27;20042;-72
2022/04/28 10:19:51;;;;;;;4.30;2.00;;;;;;;23.63;38.67;99964.25;5125294;27;20028;-71
2022/04/28 10:22:21;;;;;;;7.72;2.00;;;;;;;23.48;37.89;99955.81;5123683;27;20091;-74
2022/04/28 10:33:08;;;;;;;9.20;2.28;;;;;;;22.49;40.77;99942.34;5123637;27;20359;-73
2022/04/28 10:35:49;;;;;;;6.40;1.92;;;;;;;22.74;41.58;99935.88;5127089;27;20034;-74
2022/04/28 10:38:31;;;;;;;4.97;1.92;;;;;;;23.00;40.01;99946.22;5124861;27;20092;-74
2022/04/28 10:41:02;;;;;;;4.80;1.80;;;;;;;23.14;41.21;99944.88;5123898;27;20268;-74
2022/04/28 10:43:33;;;;;;;7.30;1.88;;;;;;;23.20;41.00;99949.34;5125318;27;20051;-73
2022/04/28 10:46:22;;;;;;;4.80;2.00;;;;;;;22.86;40.40;99948.31;5124609;27;20052;-74
2022/04/28 10:48:53;;;;;;;11.52;2.15;;;;;;;22.71;42.70;99947.13;5126819;27;20531;-74
2022/04/28 10:51:25;;;;;;;6.10;2.40;;;;;;;22.63;42.12;99951.84;5110726;27;20031;-73
2022/04/28 10:54:11;;;;;;;10.90;2.15;;;;;;;22.46;41.54;99947.38;5125022;27;20075;-73
2022/04/28 10:56:40;;;;;;;13.07;3.05;;;;;;;22.44;43.73;99955.72;5123872;27;20063;-74
2022/04/28 10:59:37;;;;;;;6.13;1.85;;;;;;;22.58;40.53;99951.72;5125920;27;20344;-74
2022/04/28 11:02:11;;;;;;;4.95;2.20;;;;;;;22.66;41.47;99949.72;5125905;27;20067;-73
2022/04/28 11:04:39;;;;;;;7.80;1.75;;;;;;;22.62;41.20;99950.19;5122461;27;20325;-74
2022/04/28 11:07:16;;;;;;;8.98;2.15;;;;;;;22.79;40.34;99958.41;5124566;27;20050;-73
2022/04/28 11:09:43;;;;;;;6.57;2.00;;;;;;;22.86;41.54;99959.13;5124676;27;20211;-74
2022/04/28 11:12:16;;;;;;;3.47;1.75;;;;;;;22.89;41.96;99964.06;5125972;27;20049;-74
2022/04/28 11:14:49;;;;;;;6.32;1.90;;;;;;;22.79;40.78;99953.00;5123926;27;20250;-73
2022/04/28 11:17:23;;;;;;;6.03;1.77;;;;;;;23.15;40.20;99946.53;5125585;27;20098;-74
2022/04/28 11:19:50;;;;;;;9.98;1.70;;;;;;;23.23;41.56;99938.03;5123014;27;20054;-73
2022/04/28 11:22:15;;;;;;;7.35;1.80;;;;;;;22.99;40.00;99939.16;5124761;27;20094;-74
2022/04/28 11:24:45;;;;;;;9.50;2.00;;;;;;;23.25;40.07;99935.09;5111219;27;20032;-73
2022/04/28 11:27:18;;;;;;;10.85;2.15;;;;;;;23.46;40.67;99920.09;5123391;27;20095;-75
2022/04/28 11:29:44;;;;;;;4.43;1.55;;;;;;;23.65;40.60;99916.16;5124337;27;20063;-72
2022/04/28 11:32:11;;;;;;;5.18;1.60;;;;;;;23.70;38.70;99913.53;5124132;27;20251;-72
2022/04/28 11:34:37;;;;;;;14.95;2.58;;;;;;;23.75;38.99;99902.81;5124765;27;20053;-72
2022/04/28 11:37:24;;;;;;;4.88;1.70;;;;;;;23.69;38.19;99894.88;5122658;27;20036;-72
2022/04/28 11:39:57;;;;;;;14.32;1.90;;;;;;;23.80;37.42;99902.91;5125851;27;20111;-71
2022/04/28 11:42:24;;;;;;;14.50;1.85;;;;;;;23.49;41.31;99904.22;5123764;27;20249;-72
2022/04/28 11:44:55;;;;;;;4.82;1.60;;;;;;;23.22;39.10;99903.97;5123527;27;20043;-73
2022/04/28 11:47:26;;;;;;;4.88;1.73;;;;;;;23.13;38.24;99899.22;5108981;27;20027;-74
2022/04/28 11:49:58;;;;;;;2.35;1.05;;;;;;;22.82;37.25;99901.25;5124114;27;20385;-74
2022/04/28 11:52:29;;;;;;;3.45;1.60;;;;;;;22.97;36.24;99905.38;5126132;27;20266;-74
2022/04/28 11:55:03;;;;;;;8.65;1.63;;;;;;;23.06;35.66;99907.44;5121485;27;20107;-73
2022/04/28 11:57:30;;;;;;;5.60;1.60;;;;;;;23.31;35.74;99904.41;5124349;27;20053;-75
2022/04/28 11:59:57;;;;;;;3.78;1.38;;;;;;;23.15;35.50;99913.28;5125024;27;20333;-73
2022/04/28 12:02:30;;;;;;;3.45;1.60;;;;;;;23.50;34.28;99913.16;5124215;27;20099;-74
2022/04/28 12:04:57;;;;;;;7.00;1.85;;;;;;;23.63;34.63;99907.47;5124840;27;20238;-72